Time;durP1;ratioP1;P1;durP2;ratioP2;P2;SDS_P1;SDS_P2;PMS_P1;PMS_P2;Temp;Humidity;BMP_temperature;BMP_pressure;BME280_temperature;BME280_humidity;BME280_pressure;Samples;Min_cycle;Max_cycle;Signal;HPM_P1;HPM_P2
2023/06/18 00:00:59;;;;;;;10.73;7.53;;;;;;;19.91;55.78;101188.53;5010241;28;20037;-71
2023/06/18 00:03:25;;;;;;;8.90;6.32;;;;;;;19.85;55.80;101179.03;5008825;28;20041;-72
2023/06/18 00:05:52;;;;;;;11.35;6.93;;;;;;;19.81;55.84;101185.88;4997688;28;20492;-71
2023/06/18 00:08:18;;;;;;;7.78;6.47;;;;;;;19.78;56.03;101180.72;4990575;28;20022;-71
2023/06/18 00:10:43;;;;;;;11.07;7.00;;;;;;;19.73;55.94;101194.16;4990049;28;20477;-71
2023/06/18 00:13:08;;;;;;;9.68;7.05;;;;;;;19.67;56.40;101187.34;5002448;28;20493;-71
2023/06/18 00:15:34;;;;;;;10.13;7.82;;;;;;;19.64;56.35;101187.69;4989739;28;20446;-71
2023/06/18 00:18:00;;;;;;;8.63;6.50;;;;;;;19.61;56.56;101188.00;4990339;28;20030;-71
2023/06/18 00:20:25;;;;;;;13.93;7.30;;;;;;;19.58;56.24;101178.16;4990054;28;20045;-71
2023/06/18 00:22:53;;;;;;;10.13;7.35;;;;;;;19.54;56.25;101185.00;4990123;28;20050;-71
2023/06/18 00:25:19;;;;;;;10.95;7.43;;;;;;;19.54;56.36;101184.16;4990133;28;20446;-71
2023/06/18 00:27:46;;;;;;;9.77;7.22;;;;;;;19.51;56.45;101177.03;4987444;28;20519;-70
2023/06/18 00:30:12;;;;;;;10.23;7.70;;;;;;;19.46;56.90;101175.78;4997543;28;20034;-71
2023/06/18 00:32:38;;;;;;;9.05;7.10;;;;;;;19.43;57.07;101173.34;5009730;28;20036;-71
2023/06/18 00:35:05;;;;;;;9.00;6.85;;;;;;;19.36;56.47;101173.13;4990177;28;20058;-71
2023/06/18 00:37:32;;;;;;;13.40;7.03;;;;;;;19.34;57.06;101172.41;5004137;28;20073;-71
2023/06/18 00:39:57;;;;;;;9.40;7.38;;;;;;;19.34;57.88;101176.03;4989928;28;20417;-71
2023/06/18 00:42:23;;;;;;;8.55;7.32;;;;;;;19.29;57.30;101167.38;4989052;28;20046;-71
2023/06/18 00:44:48;;;;;;;13.98;7.45;;;;;;;19.25;57.55;101165.97;4989459;28;20113;-71
2023/06/18 00:47:14;;;;;;;9.63;7.65;;;;;;;19.18;59.35;101161.25;5004691;28;20076;-71
2023/06/18 00:49:43;;;;;;;12.32;7.88;;;;;;;19.19;57.76;101163.84;5004634;28;20490;-71
2023/06/18 00:52:12;;;;;;;10.07;7.18;;;;;;;19.11;58.96;101153.59;4990663;28;20042;-71
2023/06/18 00:54:39;;;;;;;11.68;7.70;;;;;;;19.10;58.52;101151.88;5004757;28;20117;-71
2023/06/18 00:57:08;;;;;;;10.98;7.15;;;;;;;19.11;58.35;101153.59;5005166;28;20079;-71
2023/06/18 00:59:37;;;;;;;8.82;7.03;;;;;;;19.09;59.49;101154.81;5002569;28;20093;-71
2023/06/18 01:02:03;;;;;;;11.82;7.50;;;;;;;18.99;60.20;101152.13;4989913;28;20518;-71
2023/06/18 01:04:32;;;;;;;9.98;7.78;;;;;;;18.96;59.08;101152.44;4989323;28;20073;-71
2023/06/18 01:07:01;;;;;;;11.57;8.02;;;;;;;18.93;58.61;101144.50;4989143;28;20041;-72
2023/06/18 01:09:27;;;;;;;9.70;7.53;;;;;;;18.89;59.12;101143.09;5004084;28;20113;-71
2023/06/18 01:11:53;;;;;;;13.77;8.05;;;;;;;18.85;59.17;101147.16;5003271;28;20034;-71
2023/06/18 01:14:25;;;;;;;9.63;7.32;;;;;;;18.81;59.00;101154.88;4988434;28;20767;-71
2023/06/18 01:16:53;;;;;;;10.43;7.70;;;;;;;18.79;59.83;101151.44;5003813;28;20149;-71
2023/06/18 01:19:42;;;;;;;9.18;7.40;;;;;;;18.79;59.63;101154.19;4989398;28;20038;-71
2023/06/18 01:22:34;;;;;;;8.38;7.00;;;;;;;18.78;59.53;101148.81;4989266;28;20173;-71
2023/06/18 01:25:03;;;;;;;9.45;7.13;;;;;;;18.69;61.09;101147.00;4989066;28;20125;-71
2023/06/18 01:27:33;;;;;;;11.95;8.27;;;;;;;18.63;60.99;101148.47;4988016;28;20434;-71
2023/06/18 01:30:01;;;;;;;11.25;7.47;;;;;;;18.59;61.33;101147.91;4988702;28;20031;-71
2023/06/18 01:32:27;;;;;;;9.75;7.18;;;;;;;18.56;61.07;101137.22;5003727;28;20093;-71
2023/06/18 01:34:57;;;;;;;10.95;7.70;;;;;;;18.55;61.32;101142.84;5006221;28;20030;-71
2023/06/18 01:38:06;;;;;;;9.38;7.65;;;;;;;18.53;60.64;101136.66;4998116;28;20092;-71
2023/06/18 01:40:40;;;;;;;9.27;7.78;;;;;;;18.46;61.39;101141.88;4988422;28;20501;-71
2023/06/18 01:43:27;;;;;;;11.65;8.60;;;;;;;18.40;61.82;101130.63;5003316;28;20393;-71
2023/06/18 01:45:57;;;;;;;11.05;8.85;;;;;;;18.23;62.33;101135.97;4988383;28;20145;-71
2023/06/18 01:48:26;;;;;;;12.02;7.97;;;;;;;18.19;62.23;101139.19;4987311;28;20490;-71
2023/06/18 01:50:53;;;;;;;11.93;8.02;;;;;;;18.16;63.27;101125.72;5003561;28;20041;-71
2023/06/18 01:53:25;;;;;;;10.73;7.97;;;;;;;18.13;63.48;101123.25;5002967;28;20042;-71
2023/06/18 01:55:56;;;;;;;9.70;7.50;;;;;;;18.07;64.26;101128.34;4987946;28;20117;-71
2023/06/18 01:58:22;;;;;;;10.10;8.18;;;;;;;18.03;64.23;101129.69;5002667;28;20033;-72
2023/06/18 02:00:49;;;;;;;11.00;8.25;;;;;;;17.98;64.86;101123.75;4987936;28;20364;-72
2023/06/18 02:03:15;;;;;;;12.30;7.68;;;;;;;17.93;64.17;101120.59;4988413;28;20397;-71
2023/06/18 02:05:40;;;;;;;11.30;8.98;;;;;;;17.92;64.50;101123.53;4988291;28;20035;-71
2023/06/18 02:08:06;;;;;;;10.95;8.68;;;;;;;17.90;64.17;101125.53;5003320;28;20038;-71
2023/06/18 02:10:31;;;;;;;8.77;7.88;;;;;;;17.87;64.64;101125.88;5003858;28;20438;-71
2023/06/18 02:12:57;;;;;;;10.88;8.10;;;;;;;17.79;65.30;101116.47;4987514;28;20049;-71
2023/06/18 02:15:22;;;;;;;11.85;8.85;;;;;;;17.72;65.04;101117.19;4987493;28;20069;-71
2023/06/18 02:17:47;;;;;;;11.65;9.13;;;;;;;17.63;64.92;101116.22;5002906;28;20564;-72
2023/06/18 02:20:13;;;;;;;12.98;9.82;;;;;;;17.54;66.65;101114.38;4987543;28;20085;-71
2023/06/18 02:22:38;;;;;;;13.27;8.95;;;;;;;17.51;65.07;101107.28;5003730;28;20068;-71
2023/06/18 02:25:05;;;;;;;11.38;8.60;;;;;;;17.48;65.61;101106.69;4987781;28;20108;-71
2023/06/18 02:27:31;;;;;;;9.98;8.25;;;;;;;17.47;65.88;101108.59;5001902;28;20060;-71
2023/06/18 02:29:59;;;;;;;11.77;8.73;;;;;;;17.46;65.62;101109.59;4986424;28;20066;-71
2023/06/18 02:32:28;;;;;;;9.93;7.93;;;;;;;17.41;66.26;101114.69;4987586;28;20038;-71
2023/06/18 02:34:54;;;;;;;15.40;8.18;;;;;;;17.37;66.50;101110.50;5002604;28;20470;-71
2023/06/18 02:37:20;;;;;;;12.25;8.68;;;;;;;17.31;66.65;101111.09;4987570;28;20054;-71
2023/06/18 02:39:46;;;;;;;12.95;10.30;;;;;;;17.20;66.33;101103.88;4987392;28;20176;-71
2023/06/18 02:42:12;;;;;;;13.27;9.93;;;;;;;17.14;67.03;101101.72;4987243;28;20056;-71
2023/06/18 02:44:41;;;;;;;14.00;10.05;;;;;;;17.13;66.27;101105.50;5002318;28;20034;-71
2023/06/18 02:47:08;;;;;;;12.02;9.13;;;;;;;17.06;67.42;101096.09;5002738;28;20560;-71
2023/06/18 02:49:35;;;;;;;15.40;9.00;;;;;;;17.01;67.99;101104.75;5002486;28;20089;-71
2023/06/18 02:52:00;;;;;;;12.43;9.43;;;;;;;17.00;67.83;101105.78;5002040;28;20486;-71
2023/06/18 02:54:25;;;;;;;10.55;8.60;;;;;;;17.00;67.63;101099.44;4985432;28;20041;-71
2023/06/18 02:56:51;;;;;;;10.70;8.35;;;;;;;16.93;67.87;101099.16;4985508;28;20431;-71
2023/06/18 02:59:17;;;;;;;13.20;9.15;;;;;;;16.90;68.39;101098.56;4986565;28;20060;-72
2023/06/18 03:01:44;;;;;;;14.43;9.98;;;;;;;16.84;68.05;101097.28;5002421;28;20035;-71
2023/06/18 03:04:11;;;;;;;13.05;9.30;;;;;;;16.79;68.52;101094.97;4987444;28;20505;-70
2023/06/18 03:06:37;;;;;;;14.18;9.77;;;;;;;16.76;67.92;101095.25;5002356;28;20039;-71
2023/06/18 03:09:04;;;;;;;12.20;10.18;;;;;;;16.73;68.05;101098.28;5002406;28;20038;-71
2023/06/18 03:11:30;;;;;;;16.00;10.27;;;;;;;16.71;67.54;101096.66;4984854;28;20334;-71
2023/06/18 03:13:56;;;;;;;14.45;10.15;;;;;;;16.69;68.09;101098.69;4985050;28;20030;-71
2023/06/18 03:16:23;;;;;;;18.48;10.68;;;;;;;16.66;68.54;101107.22;5002135;28;20499;-71
2023/06/18 03:18:50;;;;;;;20.65;10.98;;;;;;;16.63;67.95;101107.50;5002166;28;20125;-71
2023/06/18 03:21:16;;;;;;;16.30;10.52;;;;;;;16.63;67.58;101100.13;4985692;28;20035;-71
2023/06/18 03:23:43;;;;;;;13.25;10.68;;;;;;;16.63;67.58;101100.13;5004129;28;20081;-71
2023/06/18 03:26:09;;;;;;;13.82;10.20;;;;;;;16.63;68.30;101096.53;5005927;28;20034;-71
2023/06/18 03:28:36;;;;;;;16.42;11.10;;;;;;;16.61;68.01;101104.91;5004372;28;20093;-71
2023/06/18 03:31:02;;;;;;;13.75;10.07;;;;;;;16.59;68.96;101106.91;4989637;28;20410;-71
2023/06/18 03:33:30;;;;;;;13.80;10.10;;;;;;;16.54;70.39;101095.50;4989491;28;20037;-71
2023/06/18 03:36:00;;;;;;;13.05;9.93;;;;;;;16.53;69.69;101107.50;4990967;28;20053;-71
2023/06/18 03:38:29;;;;;;;13.45;9.65;;;;;;;16.52;70.00;101100.28;4999271;28;20035;-71
2023/06/18 03:40:58;;;;;;;14.75;10.25;;;;;;;16.55;69.41;101095.38;5005192;28;20053;-71
2023/06/18 03:43:24;;;;;;;14.10;9.27;;;;;;;16.58;69.54;101105.19;4988858;28;20038;-71
2023/06/18 03:45:49;;;;;;;13.38;9.82;;;;;;;16.58;69.53;101097.81;4989150;28;20046;-71
2023/06/18 03:48:15;;;;;;;12.32;9.73;;;;;;;16.55;69.54;101106.38;4989462;28;20058;-71
2023/06/18 03:50:43;;;;;;;15.98;10.80;;;;;;;16.60;69.96;101108.69;4989145;28;20500;-71
2023/06/18 03:53:08;;;;;;;15.10;11.18;;;;;;;16.60;69.97;101105.94;5005839;28;20022;-71
2023/06/18 03:55:37;;;;;;;13.45;10.48;;;;;;;16.56;70.78;101113.59;5004968;28;20046;-71
2023/06/18 03:58:03;;;;;;;17.40;11.77;;;;;;;16.62;69.84;101114.88;4997978;28;20031;-71
2023/06/18 04:00:30;;;;;;;14.50;10.90;;;;;;;16.68;69.99;101113.44;4988729;28;20038;-71
2023/06/18 04:02:56;;;;;;;14.52;11.07;;;;;;;16.73;69.12;101119.41;4989179;28;20450;-71
2023/06/18 04:05:22;;;;;;;15.25;11.23;;;;;;;16.75;69.28;101120.13;5005354;28;20023;-71
2023/06/18 04:07:48;;;;;;;15.80;11.38;;;;;;;16.77;69.18;101115.34;5007942;28;20049;-71
2023/06/18 04:10:15;;;;;;;14.45;11.45;;;;;;;16.76;70.04;101108.13;5008747;28;20113;-71
2023/06/18 04:12:41;;;;;;;19.13;11.35;;;;;;;16.79;70.00;101113.34;5000888;28;20454;-71
2023/06/18 04:15:06;;;;;;;15.65;11.60;;;;;;;16.77;70.27;101124.47;4989115;28;20065;-71
2023/06/18 04:17:42;;;;;;;16.65;11.35;;;;;;;16.82;70.12;101130.38;5005012;28;20399;-71
2023/06/18 04:20:11;;;;;;;14.93;11.30;;;;;;;16.86;69.97;101122.72;4988619;28;20120;-71
2023/06/18 04:22:36;;;;;;;14.10;10.63;;;;;;;16.88;70.51;101126.22;5005479;28;20038;-71
2023/06/18 04:25:02;;;;;;;16.67;12.88;;;;;;;16.91;69.40;101125.91;5005331;28;20031;-71
2023/06/18 04:27:28;;;;;;;16.40;12.93;;;;;;;16.91;69.43;101125.03;4992524;28;20091;-71
2023/06/18 04:29:53;;;;;;;19.08;12.57;;;;;;;16.97;69.72;101121.69;4988628;28;20946;-71
2023/06/18 04:32:19;;;;;;;18.55;13.80;;;;;;;16.97;69.83;101133.59;5004231;28;20109;-71
2023/06/18 04:34:44;;;;;;;17.40;12.30;;;;;;;17.01;71.22;101124.00;5002747;28;20410;-71
2023/06/18 04:37:10;;;;;;;19.40;12.40;;;;;;;17.05;70.45;101127.34;4987990;28;20046;-71
2023/06/18 04:39:37;;;;;;;15.50;12.00;;;;;;;17.05;72.14;101122.72;5005018;28;20346;-71
2023/06/18 04:42:03;;;;;;;15.90;12.82;;;;;;;17.05;72.52;101122.72;4988894;28;20034;-71
2023/06/18 04:44:29;;;;;;;21.08;12.20;;;;;;;17.03;71.49;101122.00;4989178;28;20137;-71
2023/06/18 04:46:54;;;;;;;16.08;13.13;;;;;;;17.02;71.59;101117.53;4989600;28;20339;-71
2023/06/18 04:49:20;;;;;;;21.33;15.32;;;;;;;17.11;72.04;101117.63;5004567;28;20037;-71
2023/06/18 04:51:45;;;;;;;20.63;14.30;;;;;;;17.11;72.60;101120.38;5004571;28;20046;-71
2023/06/18 04:54:13;;;;;;;19.75;14.23;;;;;;;17.19;71.49;101118.63;5003935;28;20056;-71
2023/06/18 04:56:39;;;;;;;16.98;12.93;;;;;;;17.28;71.42;101114.13;5004294;28;20042;-71
2023/06/18 04:59:07;;;;;;;16.52;12.85;;;;;;;17.36;71.45;101110.66;5003443;28;20113;-71
2023/06/18 05:01:32;;;;;;;18.95;12.88;;;;;;;17.48;71.76;101121.31;5004581;28;20160;-71
2023/06/18 05:03:58;;;;;;;21.13;13.25;;;;;;;17.58;71.01;101118.56;4989519;28;20042;-71
2023/06/18 05:06:23;;;;;;;20.42;12.73;;;;;;;17.68;71.04;101121.28;5004003;28;20034;-71
2023/06/18 05:08:50;;;;;;;18.85;13.52;;;;;;;17.76;71.09;101114.00;4989462;28;20109;-71
2023/06/18 05:11:15;;;;;;;23.77;14.00;;;;;;;17.84;70.64;101119.63;4986937;28;20034;-71
2023/06/18 05:13:42;;;;;;;18.23;13.98;;;;;;;17.95;70.22;101117.69;4987019;28;20028;-71
2023/06/18 05:16:07;;;;;;;23.70;15.50;;;;;;;18.03;70.40;101124.16;4988178;28;20137;-71
2023/06/18 05:18:36;;;;;;;22.58;14.90;;;;;;;18.13;69.69;101126.88;5003701;28;20037;-70
2023/06/18 05:21:01;;;;;;;19.90;14.93;;;;;;;18.21;69.52;101135.25;4987336;28;20497;-71
2023/06/18 05:23:27;;;;;;;22.08;16.27;;;;;;;18.31;69.28;101136.03;5003988;28;20062;-71
2023/06/18 05:25:53;;;;;;;20.95;16.42;;;;;;;18.38;69.09;101133.56;5003641;28;20474;-71
2023/06/18 05:28:19;;;;;;;21.80;15.70;;;;;;;18.46;69.18;101130.88;4988704;28;20049;-71
2023/06/18 05:30:46;;;;;;;19.95;15.27;;;;;;;18.55;69.54;101132.69;5003302;28;20022;-71
2023/06/18 05:33:13;;;;;;;28.15;17.05;;;;;;;18.60;69.47;101129.47;4990131;28;20028;-71
2023/06/18 05:35:39;;;;;;;24.80;16.33;;;;;;;18.75;70.20;101146.38;5006758;28;20079;-71
2023/06/18 05:38:05;;;;;;;22.40;16.77;;;;;;;18.88;70.34;101133.06;5008618;28;20042;-70
2023/06/18 05:40:31;;;;;;;24.45;17.33;;;;;;;19.05;70.20;101134.94;5004444;28;20065;-71
2023/06/18 05:43:00;;;;;;;23.10;17.33;;;;;;;19.29;68.34;101147.19;5001604;28;20192;-71
2023/06/18 05:45:27;;;;;;;25.20;17.58;;;;;;;19.48;69.01;101140.59;5004630;28;20386;-70
2023/06/18 05:47:53;;;;;;;24.33;18.40;;;;;;;19.68;68.66;101144.94;5005016;28;20040;-71
2023/06/18 05:50:28;;;;;;;27.23;18.75;;;;;;;19.86;66.90;101139.31;5004118;28;20034;-71
2023/06/18 05:52:54;;;;;;;22.25;17.55;;;;;;;20.06;67.32;101139.97;5001254;28;20045;-70
2023/06/18 05:55:19;;;;;;;23.45;18.98;;;;;;;20.18;65.74;101138.59;5006578;28;20037;-71
2023/06/18 05:57:46;;;;;;;24.55;18.02;;;;;;;20.35;65.35;101143.16;4998282;28;20034;-71
2023/06/18 06:00:12;;;;;;;22.80;16.90;;;;;;;20.49;65.33;101138.06;5002284;28;20030;-71
2023/06/18 06:02:43;;;;;;;22.45;17.13;;;;;;;20.57;59.70;101140.88;5006025;28;20029;-71
2023/06/18 06:05:16;;;;;;;24.42;18.13;;;;;;;20.69;63.37;101141.38;4992908;28;20045;-71
2023/06/18 06:07:41;;;;;;;26.40;18.42;;;;;;;20.83;64.51;101140.72;5007434;28;20038;-71
2023/06/18 06:10:09;;;;;;;24.38;18.33;;;;;;;20.97;64.79;101139.19;5004822;28;20021;-70
2023/06/18 06:12:35;;;;;;;24.83;18.73;;;;;;;21.12;63.91;101138.34;5001053;28;20124;-70
2023/06/18 06:15:01;;;;;;;20.50;17.08;;;;;;;21.24;58.50;101140.75;4988346;28;20107;-70
2023/06/18 06:17:26;;;;;;;20.88;16.88;;;;;;;21.37;59.34;101142.00;5005724;28;20041;-71
2023/06/18 06:19:51;;;;;;;20.90;16.38;;;;;;;21.56;58.34;101139.88;5002626;28;20528;-71
2023/06/18 06:22:17;;;;;;;19.50;15.80;;;;;;;21.78;58.34;101147.47;4986481;28;20116;-71
2023/06/18 06:24:42;;;;;;;19.98;14.90;;;;;;;21.96;55.59;101154.66;4994459;28;20029;-71
2023/06/18 06:27:08;;;;;;;17.88;13.38;;;;;;;22.06;55.39;101152.56;5002634;28;20539;-71
2023/06/18 06:29:33;;;;;;;15.68;13.20;;;;;;;22.14;56.17;101150.66;4995521;28;20029;-71
2023/06/18 06:31:59;;;;;;;17.33;12.52;;;;;;;22.21;55.71;101158.25;5005969;28;20871;-71
2023/06/18 06:34:24;;;;;;;18.85;12.55;;;;;;;22.25;58.34;101151.31;5005709;28;20034;-71
2023/06/18 06:36:51;;;;;;;19.40;11.13;;;;;;;22.26;55.00;101161.34;4988839;28;20406;-72
2023/06/18 06:39:18;;;;;;;16.92;10.95;;;;;;;22.27;55.99;101171.41;4985542;28;20034;-72
2023/06/18 06:41:44;;;;;;;16.05;10.45;;;;;;;22.27;56.63;101211.06;4985437;28;20030;-71
2023/06/18 06:44:10;;;;;;;16.60;11.95;;;;;;;22.13;56.46;101220.97;4986295;28;20046;-70
2023/06/18 06:47:05;;;;;;;14.93;12.45;;;;;;;21.89;55.93;101208.03;5006900;28;20025;-71
2023/06/18 06:49:51;;;;;;;20.27;13.88;;;;;;;21.69;55.01;101190.06;4997620;28;20027;-71
2023/06/18 06:52:26;;;;;;;20.45;13.20;;;;;;;21.54;56.04;101189.91;5002661;28;20035;-71
2023/06/18 06:54:53;;;;;;;17.05;12.50;;;;;;;21.56;57.15;101195.25;5002224;28;20070;-71
2023/06/18 06:57:19;;;;;;;17.58;12.38;;;;;;;21.61;58.39;101204.78;5001405;28;20026;-71
2023/06/18 06:59:44;;;;;;;15.43;11.68;;;;;;;21.67;57.91;101192.13;4992281;28;20044;-71
2023/06/18 07:02:10;;;;;;;16.38;11.60;;;;;;;21.70;58.09;101200.09;5005744;28;20046;-70
2023/06/18 07:04:35;;;;;;;15.32;10.90;;;;;;;21.84;60.23;101195.75;5005072;28;20128;-71
2023/06/18 07:07:00;;;;;;;163.93;19.42;;;;;;;22.01;58.28;101203.00;4985692;28;20026;-71
2023/06/18 07:09:26;;;;;;;324.10;30.00;;;;;;;22.01;56.89;101203.00;4987648;28;20109;-71
2023/06/18 07:11:51;;;;;;;100.35;15.75;;;;;;;22.08;57.58;101194.81;4985222;28;20109;-71
2023/06/18 07:14:17;;;;;;;23.52;10.13;;;;;;;22.17;52.49;101201.22;4984872;28;20125;-72
2023/06/18 07:16:42;;;;;;;18.13;9.02;;;;;;;22.34;53.39;101206.56;4987223;28;20096;-71
2023/06/18 07:19:07;;;;;;;15.75;8.50;;;;;;;22.56;53.64;101213.19;4987619;28;20046;-72
2023/06/18 07:21:33;;;;;;;12.88;8.10;;;;;;;22.72;49.92;101211.41;4987269;28;20042;-71
2023/06/18 07:23:58;;;;;;;13.43;7.07;;;;;;;22.91;52.54;101209.06;4987325;28;20037;-72
2023/06/18 07:26:23;;;;;;;11.15;9.05;;;;;;;23.07;50.19;101205.28;4986205;28;20034;-71
2023/06/18 07:28:49;;;;;;;15.23;8.90;;;;;;;23.21;49.62;101200.84;5000992;28;20046;-71
2023/06/18 07:31:14;;;;;;;12.63;8.13;;;;;;;23.31;48.98;101207.03;4987165;28;20034;-72
2023/06/18 07:33:40;;;;;;;11.90;8.02;;;;;;;23.47;50.10;101203.25;4985342;28;20074;-70
2023/06/18 07:36:05;;;;;;;14.20;8.82;;;;;;;23.56;49.35;101195.72;4986026;28;20169;-72
2023/06/18 07:38:30;;;;;;;24.65;9.10;;;;;;;23.62;49.29;101195.81;4986817;28;20034;-72
2023/06/18 07:40:56;;;;;;;20.08;9.38;;;;;;;23.68;47.86;101200.66;4986423;28;20356;-72
2023/06/18 07:43:21;;;;;;;25.13;9.05;;;;;;;23.83;50.41;101195.16;4986422;28;20046;-71
2023/06/18 07:45:47;;;;;;;16.20;10.25;;;;;;;24.01;49.03;101210.56;5001820;28;20101;-72
2023/06/18 07:48:12;;;;;;;15.90;10.35;;;;;;;24.19;48.78;101191.59;5001830;28;20038;-71
2023/06/18 07:50:38;;;;;;;14.98;9.50;;;;;;;24.23;45.84;101190.16;4988062;28;20038;-72
2023/06/18 07:53:03;;;;;;;15.70;9.70;;;;;;;24.38;47.69;101193.81;4986784;28;20026;-72
2023/06/18 07:55:29;;;;;;;12.75;9.18;;;;;;;24.52;46.20;101194.00;4986788;28;20054;-72
2023/06/18 07:57:55;;;;;;;11.38;8.30;;;;;;;24.67;46.90;101192.09;4986195;28;20094;-72
2023/06/18 08:00:21;;;;;;;14.55;8.50;;;;;;;24.84;46.92;101185.22;5002782;28;20070;-72
2023/06/18 08:02:46;;;;;;;11.82;8.35;;;;;;;25.02;45.78;101186.69;5006042;28;20486;-72
2023/06/18 08:05:12;;;;;;;10.80;8.55;;;;;;;25.11;47.25;101185.53;5001257;28;20042;-72
2023/06/18 08:07:38;;;;;;;14.05;8.75;;;;;;;25.30;46.40;101186.78;4987247;28;20070;-72
2023/06/18 08:10:05;;;;;;;9.05;8.02;;;;;;;25.45;46.80;101184.78;4989744;28;20062;-73
2023/06/18 08:12:30;;;;;;;10.88;7.97;;;;;;;25.48;46.99;101183.53;5005364;28;20038;-72
2023/06/18 08:14:55;;;;;;;11.80;9.00;;;;;;;25.45;46.56;101190.38;5008412;28;20037;-71
2023/06/18 08:17:21;;;;;;;10.40;7.85;;;;;;;25.62;47.84;101183.44;5008865;28;20026;-73
2023/06/18 08:19:47;;;;;;;11.73;8.48;;;;;;;25.75;45.79;101179.91;5009468;28;20104;-72
2023/06/18 08:22:14;;;;;;;11.63;8.15;;;;;;;25.92;47.02;101181.34;4991140;28;20572;-72
2023/06/18 08:24:40;;;;;;;15.13;8.20;;;;;;;26.09;46.88;101176.31;5004091;28;20088;-71
2023/06/18 08:27:06;;;;;;;13.05;7.97;;;;;;;26.23;45.64;101177.25;4990047;28;20022;-71
2023/06/18 08:29:31;;;;;;;15.55;8.30;;;;;;;26.34;45.47;101178.59;4989491;28;20042;-70
2023/06/18 08:32:00;;;;;;;11.50;8.25;;;;;;;26.36;45.97;101176.47;5004513;28;20449;-72
2023/06/18 08:34:25;;;;;;;12.65;8.07;;;;;;;26.28;44.69;101176.63;5002325;28;20033;-71
2023/06/18 08:36:51;;;;;;;11.02;8.00;;;;;;;26.39;45.59;101165.75;5007067;28;20460;-72
2023/06/18 08:39:16;;;;;;;11.43;7.57;;;;;;;26.47;46.31;101169.47;5004569;28;20096;-72
2023/06/18 08:41:44;;;;;;;9.48;7.40;;;;;;;26.43;45.90;101172.66;4997697;28;20141;-72
2023/06/18 08:44:09;;;;;;;14.32;8.27;;;;;;;26.37;45.71;101167.88;5007147;28;20457;-73
2023/06/18 08:46:35;;;;;;;10.77;7.57;;;;;;;26.24;45.15;101172.53;5004908;28;20034;-72
2023/06/18 08:49:02;;;;;;;7.97;6.95;;;;;;;26.20;45.69;101177.66;4989883;28;20031;-72
2023/06/18 08:51:28;;;;;;;8.98;6.78;;;;;;;26.19;45.74;101175.94;4989708;28;20034;-73
2023/06/18 08:54:14;;;;;;;9.18;7.50;;;;;;;26.14;45.71;101167.31;5005134;28;20116;-72
2023/06/18 08:56:44;;;;;;;10.23;7.18;;;;;;;26.13;47.21;101171.19;5008338;28;20488;-72
2023/06/18 08:59:11;;;;;;;9.10;7.47;;;;;;;26.10;47.04;101166.00;4991165;28;20037;-71
2023/06/18 09:01:37;;;;;;;9.57;7.32;;;;;;;25.97;47.01;101172.34;4988723;28;20038;-73
2023/06/18 09:04:04;;;;;;;8.80;7.30;;;;;;;25.98;47.47;101170.47;4989816;28;20092;-71
2023/06/18 09:06:29;;;;;;;11.95;7.85;;;;;;;25.84;46.97;101166.72;4989445;28;20038;-72
2023/06/18 09:08:58;;;;;;;10.50;7.85;;;;;;;25.69;46.97;101173.22;4972143;28;20026;-73
2023/06/18 09:11:23;;;;;;;11.20;7.53;;;;;;;25.71;47.97;101164.66;4988372;28;20046;-72
2023/06/18 09:13:49;;;;;;;9.43;7.20;;;;;;;25.68;47.72;101176.19;4988860;28;20117;-72
2023/06/18 09:16:14;;;;;;;12.32;6.93;;;;;;;25.67;47.88;101178.13;4989596;28;20092;-72
2023/06/18 09:18:40;;;;;;;16.42;6.95;;;;;;;25.65;48.46;101174.69;4991626;28;20063;-71
2023/06/18 09:21:06;;;;;;;8.70;7.38;;;;;;;25.64;48.67;101172.09;4995967;28;20407;-73
2023/06/18 09:23:32;;;;;;;9.63;7.28;;;;;;;25.62;48.62;101177.00;5006914;28;20068;-72
2023/06/18 09:25:58;;;;;;;9.30;7.28;;;;;;;25.69;50.06;101173.22;4989691;28;20524;-73
2023/06/18 09:28:25;;;;;;;11.05;7.53;;;;;;;25.75;49.51;101174.34;4996794;28;20029;-73
2023/06/18 09:31:01;;;;;;;13.40;7.85;;;;;;;25.73;48.32;101176.44;5007866;28;20040;-73
2023/06/18 09:33:34;;;;;;;21.77;7.70;;;;;;;25.80;49.50;101182.97;5002134;28;20034;-72
2023/06/18 09:36:01;;;;;;;10.68;7.53;;;;;;;25.87;50.86;101181.09;5004192;28;20084;-72
2023/06/18 09:38:33;;;;;;;10.35;7.45;;;;;;;25.84;50.84;101181.50;5003148;28;20505;-72
2023/06/18 09:40:58;;;;;;;10.20;7.13;;;;;;;25.87;50.17;101177.44;4993727;28;20037;-72
2023/06/18 09:43:35;;;;;;;14.25;7.72;;;;;;;25.86;49.59;101181.31;5005564;28;20044;-72
2023/06/18 09:46:04;;;;;;;9.25;7.40;;;;;;;25.86;49.46;101176.59;4998663;28;20061;-72
2023/06/18 09:48:29;;;;;;;10.40;7.75;;;;;;;25.86;48.58;101179.38;5005051;28;20112;-72
2023/06/18 09:50:55;;;;;;;11.15;7.20;;;;;;;25.81;51.53;101176.34;5008097;28;20112;-72
2023/06/18 09:53:20;;;;;;;10.18;7.88;;;;;;;25.71;51.30;101170.22;5000960;28;20039;-72
2023/06/18 09:55:47;;;;;;;12.30;7.35;;;;;;;25.69;51.40;101172.34;4986360;28;20046;-71
2023/06/18 09:58:13;;;;;;;13.65;8.57;;;;;;;25.62;51.18;101179.81;5003657;28;20022;-71
2023/06/18 10:00:39;;;;;;;11.70;7.95;;;;;;;25.52;51.95;101176.50;5006328;28;20401;-71
2023/06/18 10:03:06;;;;;;;12.73;8.07;;;;;;;25.39;52.54;101174.47;5023320;28;20144;-71
2023/06/18 10:05:31;;;;;;;12.65;8.32;;;;;;;25.17;53.81;101168.88;4988569;28;20038;-70
2023/06/18 10:07:58;;;;;;;9.27;8.27;;;;;;;24.99;53.79;101174.00;5001832;28;20030;-70
2023/06/18 10:10:25;;;;;;;11.02;9.13;;;;;;;24.87;54.14;101175.63;4999688;28;20110;-71
2023/06/18 10:12:53;;;;;;;16.20;8.45;;;;;;;24.80;54.47;101169.09;5000210;28;20034;-71
2023/06/18 10:15:22;;;;;;;11.88;8.80;;;;;;;24.71;55.12;101167.50;5007253;28;20400;-71
2023/06/18 10:17:52;;;;;;;12.90;9.10;;;;;;;24.62;57.16;101155.59;5006399;28;20026;-71
2023/06/18 10:20:18;;;;;;;10.93;8.98;;;;;;;24.51;60.54;101151.41;5004736;28;20041;-70
2023/06/18 10:22:50;;;;;;;12.60;9.60;;;;;;;24.42;57.23;101144.25;5006153;28;20041;-70
2023/06/18 10:25:15;;;;;;;13.32;10.05;;;;;;;24.49;58.59;101144.34;4998365;28;20072;-70
2023/06/18 10:27:42;;;;;;;10.52;9.25;;;;;;;24.53;62.07;101143.75;5000997;28;20073;-70
2023/06/18 10:30:08;;;;;;;12.13;9.02;;;;;;;24.50;57.81;101133.00;4970888;28;20089;-70
2023/06/18 10:32:35;;;;;;;14.77;9.80;;;;;;;24.50;55.28;101130.22;4987063;28;20061;-71
2023/06/18 10:35:06;;;;;;;23.42;9.38;;;;;;;24.57;57.61;101121.94;5001493;28;20052;-71
2023/06/18 10:37:34;;;;;;;11.18;8.95;;;;;;;24.71;58.04;101122.97;5006725;28;20050;-71
2023/06/18 10:40:00;;;;;;;10.45;9.10;;;;;;;24.82;55.21;101117.75;5001205;28;20043;-71
2023/06/18 10:42:25;;;;;;;10.55;8.98;;;;;;;24.95;54.81;101122.59;4996166;28;20147;-71
2023/06/18 10:44:57;;;;;;;11.02;8.95;;;;;;;25.03;55.34;101113.25;4988963;28;20346;-71
2023/06/18 10:47:23;;;;;;;;;;;;;;;25.21;54.90;101110.88;5002167;28;20052;-71
2023/06/18 10:50:04;;;;;;;11.07;9.18;;;;;;;25.36;58.12;101117.22;5001221;28;20269;-70
2023/06/18 10:52:33;;;;;;;15.65;8.98;;;;;;;25.55;55.79;101126.78;5000266;28;20052;-71
2023/06/18 10:55:24;;;;;;;12.40;8.85;;;;;;;25.76;54.11;101123.13;4987613;28;20120;-71
2023/06/18 10:57:57;;;;;;;13.80;9.90;;;;;;;25.90;56.31;101130.50;4995712;28;20061;-71
2023/06/18 11:00:28;;;;;;;20.30;10.35;;;;;;;25.98;53.37;101125.84;5026323;28;20045;-71
2023/06/18 11:03:14;;;;;;;16.00;9.70;;;;;;;26.17;53.71;101130.66;5010303;28;20104;-71
2023/06/18 11:05:44;;;;;;;13.65;9.65;;;;;;;26.41;52.35;101134.84;5006458;28;20053;-70
2023/06/18 11:08:13;;;;;;;12.07;10.77;;;;;;;26.45;52.08;101130.63;5008726;28;20040;-70
2023/06/18 11:10:40;;;;;;;16.35;10.90;;;;;;;26.44;51.09;101129.75;5004522;28;20523;-71
2023/06/18 11:13:07;;;;;;;17.42;12.30;;;;;;;26.40;50.67;101122.84;5003896;28;20033;-71
2023/06/18 11:15:50;;;;;;;17.15;12.10;;;;;;;26.45;51.16;101113.88;5026086;28;20033;-71